createdAt,value
2019-04-29T00:00:42.717Z,11.20
2019-04-29T00:03:13.659Z,10.72
2019-04-29T00:05:44.631Z,11.00
2019-04-29T00:08:15.691Z,10.32
2019-04-29T00:10:46.957Z,13.78
2019-04-29T00:13:17.997Z,8.90
2019-04-29T00:15:56.750Z,10.18
2019-04-29T00:18:32.495Z,9.95
2019-04-29T00:21:05.704Z,12.07
2019-04-29T00:23:36.681Z,10.70
2019-04-29T00:26:07.540Z,12.33
2019-04-29T00:28:38.596Z,14.93
2019-04-29T00:31:09.552Z,9.65
2019-04-29T00:33:40.616Z,11.63
2019-04-29T00:36:11.656Z,9.93
2019-04-29T00:38:50.307Z,10.45
2019-04-29T00:41:22.899Z,11.10
2019-04-29T00:43:55.270Z,11.38
2019-04-29T00:46:26.232Z,13.38
2019-04-29T00:48:57.190Z,15.28
2019-04-29T00:51:27.741Z,16.50
2019-04-29T00:54:00.352Z,10.40
2019-04-29T00:56:31.409Z,11.88
2019-04-29T00:59:02.350Z,12.58
2019-04-29T01:01:33.327Z,12.33
2019-04-29T01:04:05.085Z,11.68
2019-04-29T01:06:35.859Z,13.62
2019-04-29T01:09:10.689Z,12.80
2019-04-29T01:11:41.438Z,9.85
2019-04-29T01:14:12.620Z,11.22
2019-04-29T01:16:43.585Z,10.95
2019-04-29T01:19:14.640Z,10.60
2019-04-29T01:21:45.596Z,9.93
2019-04-29T01:24:16.762Z,10.63
2019-04-29T01:26:49.253Z,11.73
2019-04-29T01:29:21.625Z,10.10
2019-04-29T01:31:52.805Z,11.70
2019-04-29T01:34:25.281Z,10.72
2019-04-29T01:36:56.357Z,9.63
2019-04-29T01:39:29.494Z,13.75
2019-04-29T01:42:01.650Z,12.93
2019-04-29T01:44:34.267Z,10.28
2019-04-29T01:47:05.307Z,11.83
2019-04-29T01:49:36.143Z,11.53
2019-04-29T01:52:07.001Z,12.20
2019-04-29T01:54:37.959Z,12.58
2019-04-29T01:57:09.856Z,18.52
2019-04-29T01:59:40.811Z,10.20
2019-04-29T02:02:11.669Z,14.50
2019-04-29T02:04:42.609Z,11.60
2019-04-29T02:07:13.773Z,14.85
2019-04-29T02:09:49.044Z,11.60
2019-04-29T02:12:20.105Z,13.80
2019-04-29T02:14:51.061Z,10.93
2019-04-29T02:17:22.004Z,10.63
2019-04-29T02:19:53.081Z,9.45
2019-04-29T02:22:31.817Z,11.25
2019-04-29T02:25:07.479Z,12.80
2019-04-29T02:27:38.649Z,11.70
2019-04-29T02:30:10.723Z,13.20
2019-04-29T02:32:41.784Z,11.00
2019-04-29T02:35:12.946Z,11.75
2019-04-29T02:37:45.319Z,10.60
2019-04-29T02:40:23.965Z,11.03
2019-04-29T02:42:56.543Z,39.83
2019-04-29T02:45:28.954Z,26.93
2019-04-29T02:47:59.890Z,10.90
2019-04-29T02:50:31.174Z,9.63
2019-04-29T02:53:02.234Z,9.70
2019-04-29T02:55:34.813Z,7.92
2019-04-29T02:58:12.436Z,10.10
2019-04-29T03:00:59.228Z,10.00
2019-04-29T03:03:31.845Z,8.40
2019-04-29T03:06:04.007Z,8.25
2019-04-29T03:08:35.090Z,13.75
2019-04-29T03:11:06.051Z,8.48
2019-04-29T03:13:37.093Z,10.85
2019-04-29T03:16:08.269Z,12.82
2019-04-29T03:18:40.544Z,11.18
2019-04-29T03:21:19.901Z,11.28
2019-04-29T03:23:51.066Z,13.03
2019-04-29T03:26:22.125Z,14.18
2019-04-29T03:28:52.982Z,18.82
2019-04-29T03:31:24.045Z,21.02
2019-04-29T03:33:55.103Z,18.82
2019-04-29T03:36:26.276Z,24.70
2019-04-29T03:38:57.421Z,18.23
2019-04-29T03:41:28.593Z,20.23
2019-04-29T03:43:59.532Z,23.12
2019-04-29T03:46:30.600Z,26.15
2019-04-29T03:49:01.666Z,33.85
2019-04-29T03:51:32.825Z,29.25
2019-04-29T03:54:04.000Z,28.70
2019-04-29T03:56:35.167Z,20.00
2019-04-29T03:59:06.451Z,15.30
2019-04-29T04:01:44.981Z,13.45
2019-04-29T04:04:33.686Z,13.35
2019-04-29T04:07:22.972Z,8.45
2019-04-29T04:09:53.928Z,11.03
2019-04-29T04:12:24.973Z,10.20
2019-04-29T04:14:56.053Z,10.13
2019-04-29T04:17:28.650Z,9.08
2019-04-29T04:19:59.809Z,8.73
2019-04-29T04:22:32.400Z,7.75
2019-04-29T04:25:03.465Z,9.70
2019-04-29T04:27:34.525Z,11.22
2019-04-29T04:30:06.989Z,8.25
2019-04-29T04:32:37.547Z,8.20
2019-04-29T04:35:08.422Z,6.42
2019-04-29T04:37:39.483Z,6.95
2019-04-29T04:40:12.254Z,8.53
2019-04-29T04:42:42.913Z,5.83
2019-04-29T04:45:14.095Z,9.43
2019-04-29T04:47:45.157Z,7.40
2019-04-29T04:50:16.116Z,10.58
2019-04-29T04:52:47.177Z,7.87
2019-04-29T04:55:19.668Z,7.47
2019-04-29T04:57:50.506Z,8.88
2019-04-29T05:00:27.007Z,6.62
2019-04-29T05:02:58.063Z,8.83
2019-04-29T05:05:29.024Z,8.23
2019-04-29T05:08:00.286Z,6.67
2019-04-29T05:10:31.248Z,7.47
2019-04-29T05:13:02.188Z,7.25
2019-04-29T05:15:33.148Z,8.50
2019-04-29T05:18:04.324Z,8.48
2019-04-29T05:20:35.387Z,8.08
2019-04-29T05:23:06.354Z,10.23
2019-04-29T05:25:37.306Z,8.20
2019-04-29T05:28:08.040Z,12.93
2019-04-29T05:30:38.607Z,8.33
2019-04-29T05:33:09.564Z,10.72
2019-04-29T05:35:47.971Z,11.12
2019-04-29T05:38:20.584Z,9.45
2019-04-29T05:40:53.075Z,11.33
2019-04-29T05:43:34.039Z,13.88
2019-04-29T05:46:23.207Z,13.62
2019-04-29T05:48:54.179Z,21.40
2019-04-29T05:51:32.609Z,23.60
2019-04-29T05:54:05.201Z,16.17
2019-04-29T05:56:36.261Z,17.45
2019-04-29T05:59:08.474Z,24.23
2019-04-29T06:01:42.793Z,22.85
2019-04-29T06:04:16.198Z,21.65
2019-04-29T06:06:44.594Z,21.77
2019-04-29T06:09:16.618Z,31.65
2019-04-29T06:11:48.250Z,23.75
2019-04-29T06:14:22.031Z,21.10
2019-04-29T06:16:52.961Z,22.45
2019-04-29T06:19:23.887Z,24.30
2019-04-29T06:21:54.947Z,23.10
2019-04-29T06:24:25.803Z,18.23
2019-04-29T06:26:56.743Z,17.67
2019-04-29T06:29:27.717Z,16.20
2019-04-29T06:31:58.783Z,18.80
2019-04-29T06:34:29.942Z,15.28
2019-04-29T06:37:00.900Z,17.52
2019-04-29T06:39:32.067Z,13.55
2019-04-29T06:42:02.903Z,13.55
2019-04-29T06:44:33.984Z,15.00
2019-04-29T06:47:05.141Z,14.93
2019-04-29T06:49:36.202Z,14.03
2019-04-29T06:52:08.693Z,15.30
2019-04-29T06:54:39.449Z,14.50
2019-04-29T06:57:10.511Z,11.48
2019-04-29T06:59:42.950Z,12.25
2019-04-29T07:02:14.445Z,14.10
2019-04-29T07:04:46.232Z,21.17
2019-04-29T07:07:17.414Z,12.35
2019-04-29T07:09:48.352Z,13.03
2019-04-29T07:12:19.431Z,12.37
2019-04-29T07:14:50.285Z,11.00
2019-04-29T07:17:21.328Z,11.28
2019-04-29T07:19:53.244Z,10.85
2019-04-29T07:22:25.728Z,12.18
2019-04-29T07:24:56.865Z,13.88
2019-04-29T07:27:27.847Z,19.20
2019-04-29T07:30:01.759Z,23.57
2019-04-29T07:32:32.439Z,18.92
2019-04-29T07:35:05.864Z,12.45
2019-04-29T07:37:36.074Z,14.75
2019-04-29T07:40:08.337Z,21.10
2019-04-29T07:42:40.035Z,17.12
2019-04-29T07:45:15.700Z,19.92
2019-04-29T07:47:56.261Z,14.28
2019-04-29T07:50:22.327Z,29.05
2019-04-29T07:52:52.910Z,17.92
2019-04-29T07:55:25.910Z,14.93
2019-04-29T07:57:56.626Z,37.30
2019-04-29T08:00:35.239Z,18.27
2019-04-29T08:03:08.026Z,20.23
2019-04-29T08:05:38.708Z,23.10
2019-04-29T08:08:09.544Z,23.40
2019-04-29T08:10:53.679Z,20.17
2019-04-29T08:13:14.675Z,24.40
2019-04-29T08:15:45.402Z,18.60
2019-04-29T08:18:18.105Z,24.18
2019-04-29T08:20:49.161Z,20.92
2019-04-29T08:23:20.022Z,28.87
2019-04-29T08:25:51.187Z,21.55
2019-04-29T08:28:22.224Z,27.67
2019-04-29T08:30:53.302Z,27.45
2019-04-29T08:33:24.449Z,28.12
2019-04-29T08:35:55.525Z,23.50
2019-04-29T08:38:26.484Z,22.15
2019-04-29T08:40:57.337Z,20.35
2019-04-29T08:43:32.901Z,21.60
2019-04-29T08:46:05.598Z,16.93
2019-04-29T08:48:36.555Z,17.40
2019-04-29T08:51:07.398Z,18.90
2019-04-29T08:53:38.353Z,18.07
2019-04-29T08:56:10.117Z,21.50
2019-04-29T08:58:44.204Z,18.65
2019-04-29T09:01:14.915Z,18.07
2019-04-29T09:03:45.990Z,19.87
2019-04-29T09:06:17.045Z,17.65
2019-04-29T09:08:55.385Z,13.25
2019-04-29T09:11:20.479Z,14.40
2019-04-29T09:13:51.337Z,14.65
2019-04-29T09:16:22.315Z,23.25
2019-04-29T09:18:55.970Z,18.10
2019-04-29T09:21:27.093Z,18.90
2019-04-29T09:23:57.930Z,13.32
2019-04-29T09:26:45.884Z,13.32
2019-04-29T09:29:36.463Z,17.35
2019-04-29T09:32:07.847Z,14.50
2019-04-29T09:34:39.010Z,17.67
2019-04-29T09:37:10.173Z,10.63
2019-04-29T09:39:43.783Z,9.83
2019-04-29T09:42:22.216Z,13.20
2019-04-29T09:45:00.639Z,12.40
2019-04-29T09:47:32.294Z,13.43
2019-04-29T09:50:03.476Z,15.25
2019-04-29T09:52:35.235Z,16.50
2019-04-29T09:55:07.335Z,14.70
2019-04-29T09:57:38.279Z,11.22
2019-04-29T10:00:28.888Z,8.88
2019-04-29T10:03:02.919Z,9.88
2019-04-29T10:05:35.493Z,9.25
2019-04-29T10:08:06.870Z,12.07
2019-04-29T10:10:37.635Z,11.00
2019-04-29T10:13:09.101Z,9.28
2019-04-29T10:16:00.371Z,12.60
2019-04-29T10:18:47.623Z,11.20
2019-04-29T10:21:21.395Z,11.18
2019-04-29T10:23:51.491Z,14.45
2019-04-29T10:26:22.451Z,11.78
2019-04-29T10:28:54.998Z,12.33
2019-04-29T10:31:25.989Z,8.23
2019-04-29T10:33:56.863Z,10.23
2019-04-29T10:36:29.438Z,12.37
2019-04-29T10:39:02.051Z,11.78
2019-04-29T10:41:40.376Z,8.98
2019-04-29T10:44:11.723Z,13.13
2019-04-29T10:46:51.681Z,9.98
2019-04-29T10:52:03.010Z,31.60
2019-04-29T10:54:33.880Z,29.50
2019-04-29T10:57:05.352Z,23.98
2019-04-29T10:59:40.715Z,27.30
2019-04-29T11:02:22.499Z,38.28
2019-04-29T11:04:57.951Z,43.35
2019-04-29T11:07:30.355Z,46.58
2019-04-29T11:10:08.885Z,46.77
2019-04-29T11:12:39.840Z,56.05
2019-04-29T11:15:13.929Z,55.48
2019-04-29T11:17:44.909Z,51.98
2019-04-29T11:20:21.378Z,57.60
2019-04-29T11:22:54.732Z,47.25
2019-04-29T11:25:50.850Z,45.17
2019-04-29T11:28:17.741Z,46.90
2019-04-29T11:30:49.664Z,44.20
2019-04-29T11:33:23.235Z,39.98
2019-04-29T11:35:59.193Z,45.88
2019-04-29T11:38:32.955Z,45.55
2019-04-29T11:41:01.604Z,45.60
2019-04-29T11:43:32.659Z,39.30
2019-04-29T11:46:03.618Z,31.70
2019-04-29T11:48:34.679Z,24.07
2019-04-29T11:51:19.038Z,25.30
2019-04-29T11:53:50.589Z,26.45
2019-04-29T11:56:21.958Z,23.73
2019-04-29T11:59:00.649Z,23.47
2019-04-29T12:01:42.846Z,25.80
2019-04-29T12:04:28.655Z,24.55
2019-04-29T12:06:58.150Z,25.05
2019-04-29T12:09:30.493Z,24.77
2019-04-29T12:12:03.112Z,21.25
2019-04-29T12:14:41.621Z,22.98
2019-04-29T12:17:14.134Z,22.30
2019-04-29T12:19:56.054Z,21.30
2019-04-29T12:22:30.683Z,21.02
2019-04-29T12:24:59.484Z,21.23
2019-04-29T12:27:30.749Z,24.30
2019-04-29T12:30:03.244Z,28.62
2019-04-29T12:32:36.129Z,21.57
2019-04-29T12:35:09.028Z,23.05
2019-04-29T12:37:47.573Z,24.47
2019-04-29T12:40:36.430Z,20.20
2019-04-29T12:43:25.388Z,23.57
2019-04-29T12:45:58.193Z,71.55
2019-04-29T12:48:29.200Z,48.17
2019-04-29T12:51:00.005Z,27.02
2019-04-29T12:53:31.063Z,20.00
2019-04-29T12:56:02.126Z,16.23
2019-04-29T12:58:33.391Z,16.82
2019-04-29T13:01:12.425Z,15.23
2019-04-29T13:04:00.137Z,15.68
2019-04-29T13:06:50.136Z,14.83
2019-04-29T13:09:39.099Z,14.33
2019-04-29T13:12:19.057Z,64.45
2019-04-29T13:14:44.185Z,21.57
2019-04-29T13:17:16.881Z,17.40
2019-04-29T13:20:00.970Z,17.07
2019-04-29T13:22:21.871Z,14.85
2019-04-29T13:24:52.911Z,21.73
2019-04-29T13:27:25.443Z,16.52
2019-04-29T13:29:56.897Z,21.82
2019-04-29T13:32:29.896Z,21.97
2019-04-29T13:35:05.186Z,177.17
2019-04-29T13:37:34.265Z,14.70
2019-04-29T13:40:08.912Z,61.70
2019-04-29T13:42:39.541Z,58.48
2019-04-29T13:45:13.984Z,29.02
2019-04-29T13:48:01.781Z,15.43
2019-04-29T13:50:50.826Z,111.32
2019-04-29T13:53:22.078Z,16.07
2019-04-29T13:56:10.321Z,99.22
2019-04-29T13:58:27.043Z,23.32
2019-04-29T14:01:21.148Z,14.85
2019-04-29T14:03:54.810Z,12.50
2019-04-29T14:06:26.183Z,17.10
2019-04-29T14:08:59.969Z,20.70
2019-04-29T14:11:29.765Z,19.02
2019-04-29T14:14:00.810Z,17.55
2019-04-29T14:16:31.749Z,20.50
2019-04-29T14:19:02.712Z,36.30
2019-04-29T14:21:33.994Z,18.42
2019-04-29T14:24:05.257Z,23.18
2019-04-29T14:26:37.091Z,14.55
2019-04-29T14:29:08.586Z,12.47
2019-04-29T14:31:41.199Z,16.12
2019-04-29T14:34:17.365Z,76.00
2019-04-29T14:36:46.188Z,42.62
2019-04-29T14:39:28.364Z,14.63
2019-04-29T14:41:55.462Z,30.60
2019-04-29T14:44:37.697Z,24.85
2019-04-29T14:47:25.510Z,17.90
2019-04-29T14:49:58.313Z,17.75
2019-04-29T14:52:29.368Z,18.17
2019-04-29T14:55:00.531Z,14.13
2019-04-29T14:57:35.991Z,15.65
2019-04-29T15:00:22.295Z,15.55
2019-04-29T15:02:55.916Z,17.40
2019-04-29T15:05:27.749Z,16.95
2019-04-29T15:08:00.050Z,15.00
2019-04-29T15:10:32.921Z,16.57
2019-04-29T15:13:20.245Z,17.12
2019-04-29T15:15:45.361Z,19.20
2019-04-29T15:18:38.500Z,17.62
2019-04-29T15:21:06.211Z,16.87
2019-04-29T15:26:06.851Z,18.48
2019-04-29T15:28:53.459Z,19.35
2019-04-29T15:31:25.292Z,20.23
2019-04-29T15:33:56.193Z,28.02
2019-04-29T15:36:30.601Z,40.70
2019-04-29T15:39:09.677Z,23.38
2019-04-29T15:41:33.311Z,23.10
2019-04-29T15:44:08.037Z,22.42
2019-04-29T15:46:47.961Z,22.00
2019-04-29T15:49:13.603Z,23.65
2019-04-29T15:51:56.729Z,23.12
2019-04-29T15:54:27.586Z,24.60
2019-04-29T15:56:59.076Z,21.90
2019-04-29T15:59:30.523Z,27.35
2019-04-29T16:02:04.418Z,22.17
2019-04-29T16:04:47.258Z,23.45
2019-04-29T16:07:28.152Z,24.92
2019-04-29T16:10:20.727Z,25.25
2019-04-29T16:13:10.469Z,22.93
2019-04-29T16:15:41.740Z,26.55
2019-04-29T16:18:14.735Z,25.23
2019-04-29T16:20:45.185Z,23.57
2019-04-29T16:23:16.245Z,24.60
2019-04-29T16:25:52.401Z,23.05
2019-04-29T16:28:24.129Z,22.58
2019-04-29T16:30:52.355Z,32.48
2019-04-29T16:33:23.540Z,22.00
2019-04-29T16:35:57.683Z,22.55
2019-04-29T16:38:26.699Z,23.27
2019-04-29T16:41:05.532Z,20.55
2019-04-29T16:43:37.925Z,27.42
2019-04-29T16:46:13.279Z,38.83
2019-04-29T16:48:45.773Z,22.85
2019-04-29T16:51:17.036Z,26.27
2019-04-29T16:53:49.531Z,32.60
2019-04-29T16:56:22.394Z,28.05
2019-04-29T16:58:57.572Z,32.42
2019-04-29T17:01:53.189Z,26.17
2019-04-29T17:04:29.577Z,29.00
2019-04-29T17:07:12.505Z,28.27
2019-04-29T17:09:50.405Z,28.65
2019-04-29T17:12:21.557Z,25.08
2019-04-29T17:15:03.763Z,25.80
2019-04-29T17:17:29.216Z,51.73
2019-04-29T17:19:59.131Z,41.85
2019-04-29T17:22:30.211Z,26.68
2019-04-29T17:25:01.328Z,24.27
2019-04-29T17:27:42.076Z,24.12
2019-04-29T17:30:16.995Z,21.33
2019-04-29T17:33:06.366Z,26.73
2019-04-29T17:35:46.828Z,21.85
2019-04-29T17:38:11.347Z,21.30
2019-04-29T17:40:50.683Z,21.95
2019-04-29T17:43:25.023Z,21.50
2019-04-29T17:46:04.062Z,23.77
2019-04-29T17:48:36.658Z,24.52
2019-04-29T17:51:12.060Z,23.60
2019-04-29T17:53:50.728Z,22.70
2019-04-29T17:56:39.380Z,21.77
2019-04-29T17:59:15.812Z,19.12
2019-04-29T18:01:51.442Z,19.40
2019-04-29T18:04:39.479Z,22.30
2019-04-29T18:07:20.664Z,20.70
2019-04-29T18:10:10.629Z,19.67
2019-04-29T18:12:45.266Z,24.55
2019-04-29T18:15:20.054Z,19.12
2019-04-29T18:17:49.230Z,20.80
2019-04-29T18:20:32.968Z,21.62
2019-04-29T18:23:11.114Z,17.75
2019-04-29T18:25:50.458Z,30.70
2019-04-29T18:28:21.209Z,20.57
2019-04-29T18:30:54.467Z,22.70
2019-04-29T18:33:30.030Z,16.77
2019-04-29T18:36:03.755Z,18.25
2019-04-29T18:38:30.253Z,20.25
2019-04-29T18:41:01.320Z,19.45
2019-04-29T18:43:32.259Z,18.75
2019-04-29T18:46:06.127Z,22.13
2019-04-29T18:48:35.620Z,19.87
2019-04-29T18:51:06.785Z,17.02
2019-04-29T18:53:37.743Z,19.02
2019-04-29T18:56:08.688Z,15.80
2019-04-29T18:58:42.076Z,18.67
2019-04-29T19:01:12.254Z,18.80
2019-04-29T19:03:48.326Z,19.23
2019-04-29T19:06:19.900Z,21.17
2019-04-29T19:08:54.967Z,21.85
2019-04-29T19:11:32.495Z,20.02
2019-04-29T19:13:58.282Z,21.33
2019-04-29T19:16:29.561Z,22.48
2019-04-29T19:19:01.879Z,22.70
2019-04-29T19:21:33.013Z,20.80
2019-04-29T19:24:04.855Z,23.02
2019-04-29T19:26:35.836Z,31.87
2019-04-29T19:29:09.479Z,26.65
2019-04-29T19:31:48.743Z,22.22
2019-04-29T19:34:14.795Z,22.55
2019-04-29T19:36:45.205Z,21.70
2019-04-29T19:39:16.990Z,23.35
2019-04-29T19:41:50.389Z,26.70
2019-04-29T19:44:21.252Z,27.42
2019-04-29T19:46:52.415Z,22.50
2019-04-29T19:49:23.354Z,24.07
2019-04-29T19:51:55.519Z,23.47
2019-04-29T19:54:28.431Z,29.23
2019-04-29T19:57:03.239Z,26.17
2019-04-29T19:59:31.860Z,26.93
2019-04-29T20:02:08.160Z,24.77
2019-04-29T20:04:37.430Z,27.87
2019-04-29T20:07:10.194Z,28.42
2019-04-29T20:09:42.431Z,27.42
2019-04-29T20:12:16.831Z,24.37
2019-04-29T20:14:46.483Z,33.18
2019-04-29T20:17:37.053Z,29.90
2019-04-29T20:20:29.760Z,29.18
2019-04-29T20:22:59.046Z,28.80
2019-04-29T20:25:37.642Z,27.82
2019-04-29T20:28:05.805Z,29.15
2019-04-29T20:30:37.833Z,30.50
2019-04-29T20:33:12.336Z,31.17
2019-04-29T20:35:45.489Z,36.08
2019-04-29T20:38:15.737Z,28.92
2019-04-29T20:40:46.850Z,30.95
2019-04-29T20:43:20.949Z,30.52
2019-04-29T20:45:50.575Z,30.37
2019-04-29T20:48:21.609Z,32.60
2019-04-29T20:50:54.210Z,35.88
2019-04-29T20:53:30.919Z,32.53
2019-04-29T20:56:09.510Z,40.17
2019-04-29T20:58:33.268Z,36.28
2019-04-29T21:01:10.913Z,38.50
2019-04-29T21:03:41.003Z,35.55
2019-04-29T21:06:11.385Z,36.42
2019-04-29T21:08:46.636Z,41.80
2019-04-29T21:11:21.128Z,37.28
2019-04-29T21:13:55.971Z,38.75
2019-04-29T21:16:29.094Z,43.52
2019-04-29T21:18:59.474Z,45.80
2019-04-29T21:21:30.534Z,47.58
2019-04-29T21:24:06.564Z,44.20
2019-04-29T21:26:37.932Z,42.13
2019-04-29T21:29:10.789Z,40.23
2019-04-29T21:31:39.259Z,38.48
2019-04-29T21:34:10.849Z,48.52
2019-04-29T21:37:01.513Z,46.37
2019-04-29T21:42:17.169Z,49.73
2019-04-29T21:44:48.330Z,52.93
2019-04-29T21:47:19.495Z,52.83
2019-04-29T21:49:54.650Z,61.15
2019-04-29T21:52:24.103Z,55.85
2019-04-29T21:54:57.012Z,62.58
2019-04-29T21:57:27.810Z,59.13
2019-04-29T21:59:58.887Z,64.70
2019-04-29T22:02:29.827Z,60.60
2019-04-29T22:05:00.910Z,65.95
2019-04-29T22:07:32.070Z,69.95
2019-04-29T22:10:03.132Z,66.62
2019-04-29T22:12:34.599Z,76.72
2019-04-29T22:15:06.503Z,71.50
2019-04-29T22:17:37.522Z,76.72
2019-04-29T22:20:11.054Z,75.28
2019-04-29T22:22:42.114Z,78.42
2019-04-29T22:25:13.262Z,78.80
2019-04-29T22:27:45.125Z,71.95
2019-04-29T22:30:18.666Z,82.55
2019-04-29T22:32:51.876Z,77.05
2019-04-29T22:35:22.820Z,84.55
2019-04-29T22:37:55.566Z,81.25
2019-04-29T22:40:26.394Z,78.95
2019-04-29T22:43:08.404Z,75.70
2019-04-29T22:45:35.616Z,69.85
2019-04-29T22:48:16.717Z,82.27
2019-04-29T22:50:39.616Z,78.80
2019-04-29T22:53:10.678Z,68.30
2019-04-29T22:55:41.755Z,68.90
2019-04-29T22:58:12.390Z,74.87
2019-04-29T23:00:43.672Z,80.30
2019-04-29T23:03:14.733Z,73.67
2019-04-29T23:05:46.273Z,71.07
2019-04-29T23:08:17.349Z,75.22
2019-04-29T23:10:48.531Z,73.92
2019-04-29T23:13:19.397Z,76.45
2019-04-29T23:15:53.830Z,77.42
2019-04-29T23:18:26.629Z,78.07
2019-04-29T23:21:11.672Z,79.90
2019-04-29T23:23:47.151Z,78.78
2019-04-29T23:26:18.192Z,77.97
2019-04-29T23:28:49.150Z,83.33
2019-04-29T23:31:22.613Z,86.97
2019-04-29T23:33:53.317Z,91.40
2019-04-29T23:36:25.213Z,91.95
2019-04-29T23:38:56.691Z,95.42
2019-04-29T23:41:33.022Z,89.50
2019-04-29T23:44:04.322Z,90.40
2019-04-29T23:46:34.257Z,89.90
2019-04-29T23:49:06.805Z,102.00
2019-04-29T23:51:37.866Z,94.70
2019-04-29T23:54:08.978Z,84.90
2019-04-29T23:56:57.819Z,90.97
2019-04-29T23:59:30.328Z,93.58
